AR76 weather

Augusta Heliport
Augusta, Arkansas, United States

Public forecast

Using degrees Fahrenheit for public forecast. Weather courtesy of forecast.io.

METAR (pilot weather report)

Closest report is Searcy Municipal Airport, 19.2 nm (35.5 km) WSW. Retrieved 2019/07/19 12:56 UTC (26 minutes ago):

KSRC 191256Z AUTO 10SM CLR 27/25 A3002 RMK AO2 SLP164 T02670250 $

TAF (pilot weather forecast)

Forecast is more than 6 hours old.

Closest forecast is Little Rock Air Force Base, 44.8 nm (83.0 km) WSW. Retrieved 2019/07/19 07:06 UTC (6 hours ago):

TAF TAF KLRF 190701Z 1907/2013 18006KT 9999 FEW040 FEW200 QNH2994INS BECMG 1916/1917 20010G15KT 9999 SCT045 SCT200 QNH2993INS BECMG 1923/1924 16005KT 9999 FEW050 FEW250 QNH2993INS BECMG 2010/2011 20005KT 9999 SCT035 SCT150 BKN250 QNH2997INS TX36/1921Z TN24/1911Z